Time;durP1;ratioP1;P1;durP2;ratioP2;P2;SDS_P1;SDS_P2;PMS_P1;PMS_P2;Temp;Humidity;BMP_temperature;BMP_pressure;BME280_temperature;BME280_humidity;BME280_pressure;Samples;Min_cycle;Max_cycle;Signal;HPM_P1;HPM_P2
2022/01/14 00:01:42;;;;;;;28.88;12.05;;;5.60;99.90;;;;;;6251190;22;20043;-80
2022/01/14 00:04:07;;;;;;;28.95;11.35;;;5.50;99.90;;;;;;6251029;22;20016;-80
2022/01/14 00:06:33;;;;;;;25.90;10.57;;;5.50;99.90;;;;;;6251116;22;20090;-80
2022/01/14 00:09:10;;;;;;;26.85;11.30;;;5.50;99.90;;;;;;6251131;22;20077;-80
2022/01/14 00:11:40;;;;;;;35.97;11.98;;;5.50;99.90;;;;;;6251046;22;20020;-80
2022/01/14 00:16:41;;;;;;;33.35;13.13;;;5.50;99.90;;;;;;6250915;22;20027;-80
2022/01/14 00:19:07;;;;;;;27.95;10.98;;;5.40;99.90;;;;;;6250716;22;20050;-79
2022/01/14 00:21:35;;;;;;;27.88;10.45;;;5.40;99.90;;;;;;6250991;22;20385;-79
2022/01/14 00:24:10;;;;;;;27.83;9.98;;;5.40;99.90;;;;;;6250916;22;20019;-79
2022/01/14 00:32:12;;;;;;;29.88;9.75;;;5.40;99.90;;;;;;6250850;22;20027;-81
2022/01/14 00:34:38;;;;;;;27.38;9.75;;;5.40;99.90;;;;;;6250905;22;20027;-81
2022/01/14 00:37:03;;;;;;;25.60;10.18;;;5.40;99.90;;;;;;6250812;22;20019;-80
2022/01/14 00:39:29;;;;;;;23.20;9.55;;;5.40;99.90;;;;;;6250779;22;20012;-80
2022/01/14 00:41:55;;;;;;;39.15;10.77;;;5.40;99.90;;;;;;6250788;22;20027;-80
2022/01/14 00:44:21;;;;;;;33.67;10.50;;;5.40;99.90;;;;;;6250703;22;20012;-80
2022/01/14 00:46:49;;;;;;;36.10;10.25;;;5.30;99.90;;;;;;6250691;22;20022;-80
2022/01/14 00:49:16;;;;;;;35.03;10.88;;;5.30;99.90;;;;;;6250371;22;20070;-80
2022/01/14 00:51:43;;;;;;;26.73;10.73;;;5.30;99.90;;;;;;6250743;22;20019;-80
2022/01/14 00:54:09;;;;;;;27.25;9.70;;;5.30;99.90;;;;;;6250637;22;20012;-80
2022/01/14 00:59:14;;;;;;;30.25;10.68;;;5.30;99.90;;;;;;6250545;22;20016;-81
2022/01/14 01:02:01;;;;;;;26.50;10.38;;;5.30;99.90;;;;;;6278005;22;20016;-80
2022/01/14 01:04:36;;;;;;;42.95;12.10;;;5.30;99.90;;;;;;6250527;22;20015;-80
2022/01/14 01:07:04;;;;;;;26.55;10.82;;;5.30;99.90;;;;;;6250494;22;20020;-81
2022/01/14 01:09:31;;;;;;;33.58;11.63;;;5.20;99.90;;;;;;6250476;22;20098;-81
2022/01/14 01:12:15;;;;;;;28.60;10.48;;;5.20;99.90;;;;;;6250461;22;20351;-81
2022/01/14 01:14:52;;;;;;;25.85;11.80;;;5.20;99.90;;;;;;6250558;22;20015;-79
2022/01/14 01:17:18;;;;;;;28.42;10.88;;;5.30;99.90;;;;;;6250357;22;20020;-79
2022/01/14 01:19:44;;;;;;;29.98;10.70;;;5.20;99.90;;;;;;6277152;22;20339;-78
2022/01/14 01:22:10;;;;;;;28.67;11.85;;;5.30;99.90;;;;;;6250374;22;20443;-77
2022/01/14 01:24:36;;;;;;;31.67;11.82;;;5.20;99.90;;;;;;6250234;22;20069;-77
2022/01/14 01:27:06;;;;;;;36.67;12.25;;;5.30;99.90;;;;;;6250341;22;20108;-78
2022/01/14 01:32:04;;;;;;;37.53;10.82;;;5.30;99.90;;;;;;6277358;22;20347;-77
2022/01/14 01:34:30;;;;;;;31.77;11.43;;;5.30;99.90;;;;;;6250230;22;20020;-77
2022/01/14 01:36:57;;;;;;;28.70;11.63;;;5.30;99.90;;;;;;6250130;22;20490;-77
2022/01/14 01:39:26;;;;;;;28.63;10.80;;;5.30;99.90;;;;;;6250256;22;20008;-77
2022/01/14 01:41:55;;;;;;;25.92;11.13;;;5.40;99.90;;;;;;6250203;22;20027;-77
2022/01/14 01:44:23;;;;;;;31.58;12.73;;;5.40;99.90;;;;;;6250108;22;20019;-77
2022/01/14 01:46:50;;;;;;;29.17;11.55;;;5.40;99.90;;;;;;6250157;22;20016;-77
2022/01/14 01:49:18;;;;;;;38.95;12.90;;;5.40;99.90;;;;;;6277582;22;20091;-78
2022/01/14 01:51:46;;;;;;;25.25;11.10;;;5.40;99.90;;;;;;6277161;22;20377;-78
2022/01/14 01:54:13;;;;;;;28.70;12.13;;;5.40;99.90;;;;;;6250104;22;20016;-78
2022/01/14 01:56:38;;;;;;;34.42;12.73;;;5.50;99.90;;;;;;6250030;22;20316;-78
2022/01/14 01:59:05;;;;;;;27.27;12.35;;;5.40;99.90;;;;;;6250074;22;20512;-78
2022/01/14 02:01:32;;;;;;;28.33;13.40;;;5.50;99.90;;;;;;6276759;22;20443;-78
2022/01/14 02:03:58;;;;;;;27.92;12.10;;;5.50;99.90;;;;;;6277118;22;20016;-78
2022/01/14 02:06:24;;;;;;;29.42;12.82;;;5.50;99.90;;;;;;6277395;22;20019;-78
2022/01/14 02:08:51;;;;;;;34.22;12.32;;;5.60;99.90;;;;;;6249962;22;20386;-78
2022/01/14 02:11:17;;;;;;;35.28;13.80;;;5.50;99.90;;;;;;6249989;22;20047;-78
2022/01/14 02:13:44;;;;;;;30.00;12.10;;;5.50;99.90;;;;;;6277407;22;20035;-78
2022/01/14 02:18:47;;;;;;;31.77;13.10;;;5.60;99.90;;;;;;6277202;22;20381;-78
2022/01/14 02:24:21;;;;;;;29.00;13.32;;;5.60;99.90;;;;;;6277011;22;20031;-78
2022/01/14 02:26:53;;;;;;;31.42;11.55;;;5.60;99.90;;;;;;6249883;22;20153;-78
2022/01/14 02:29:21;;;;;;;28.08;12.07;;;5.60;99.90;;;;;;6249895;22;20019;-78
2022/01/14 02:31:47;;;;;;;36.38;13.70;;;5.60;99.90;;;;;;6249848;22;20026;-78
2022/01/14 02:34:14;;;;;;;34.00;11.60;;;5.60;99.90;;;;;;6249941;22;20024;-78
2022/01/14 02:36:42;;;;;;;28.38;11.48;;;5.70;99.90;;;;;;6249680;22;20067;-78
2022/01/14 02:39:09;;;;;;;29.83;13.07;;;5.70;99.90;;;;;;6249917;22;20011;-81
2022/01/14 02:41:37;;;;;;;33.33;12.30;;;5.80;99.90;;;;;;6250269;22;20073;-80
2022/01/14 02:44:09;;;;;;;36.30;12.93;;;5.80;99.90;;;;;;6249811;22;20478;-80
2022/01/14 02:46:42;;;;;;;37.85;13.40;;;5.80;99.90;;;;;;6249898;22;20019;-80
2022/01/14 02:49:08;;;;;;;28.00;11.75;;;5.70;99.90;;;;;;6249804;22;20493;-80
2022/01/14 02:51:34;;;;;;;32.55;13.35;;;5.70;99.90;;;;;;6249824;22;20024;-80
2022/01/14 02:54:16;;;;;;;31.38;12.60;;;5.80;99.90;;;;;;6249822;22;20016;-81
2022/01/14 02:56:44;;;;;;;32.30;12.20;;;5.70;99.90;;;;;;6249657;22;20348;-81
2022/01/14 02:59:10;;;;;;;25.75;12.70;;;5.80;99.90;;;;;;6249610;22;20340;-80
2022/01/14 03:01:37;;;;;;;37.65;12.18;;;5.80;99.90;;;;;;6249690;22;20020;-80
2022/01/14 03:04:04;;;;;;;28.70;11.77;;;5.80;99.90;;;;;;6249618;22;20016;-80
2022/01/14 03:06:30;;;;;;;29.17;11.80;;;5.90;99.90;;;;;;6249591;22;20383;-80
2022/01/14 03:08:57;;;;;;;28.83;11.95;;;5.80;99.90;;;;;;6249703;22;20050;-80
2022/01/14 03:11:34;;;;;;;33.13;13.98;;;5.80;99.90;;;;;;6249806;22;20111;-81
2022/01/14 03:14:02;;;;;;;33.22;12.18;;;5.80;99.90;;;;;;6251654;22;20106;-81
2022/01/14 03:16:29;;;;;;;27.92;13.68;;;5.80;99.90;;;;;;6251512;22;20024;-81
2022/01/14 03:19:04;;;;;;;30.73;13.50;;;5.80;99.90;;;;;;6251605;22;20011;-80
2022/01/14 03:21:36;;;;;;;28.27;13.15;;;5.80;99.90;;;;;;6251280;22;20443;-80
2022/01/14 03:24:14;;;;;;;33.60;13.23;;;5.80;99.90;;;;;;6251580;22;20038;-81
2022/01/14 03:26:39;;;;;;;35.58;13.52;;;5.80;99.90;;;;;;6251551;22;20020;-81
2022/01/14 03:29:05;;;;;;;38.70;14.60;;;5.80;99.90;;;;;;6278484;22;20065;-81
2022/01/14 03:31:31;;;;;;;33.42;13.13;;;5.80;99.90;;;;;;6251446;22;20019;-81
2022/01/14 03:33:56;;;;;;;32.92;13.73;;;5.80;99.90;;;;;;6251443;22;20012;-81
2022/01/14 03:36:22;;;;;;;36.85;13.85;;;5.80;99.90;;;;;;6251393;22;20023;-80
2022/01/14 03:38:48;;;;;;;29.88;12.70;;;5.70;99.90;;;;;;6251455;22;20020;-80
2022/01/14 03:41:13;;;;;;;29.73;13.93;;;5.70;99.90;;;;;;6251333;22;20010;-79
2022/01/14 03:43:41;;;;;;;25.67;13.23;;;5.70;99.90;;;;;;6278474;22;20023;-78
2022/01/14 03:46:07;;;;;;;29.50;14.65;;;5.70;99.90;;;;;;6251280;22;20026;-78
2022/01/14 03:48:32;;;;;;;26.63;13.18;;;5.80;99.90;;;;;;6251286;22;20031;-78
2022/01/14 03:50:58;;;;;;;33.00;13.18;;;5.80;99.90;;;;;;6251207;22;20023;-78
2022/01/14 03:53:24;;;;;;;29.17;13.35;;;5.70;99.90;;;;;;6251161;22;20018;-78
2022/01/14 03:55:50;;;;;;;29.55;12.98;;;5.70;99.90;;;;;;6251115;22;20094;-78
2022/01/14 03:58:16;;;;;;;29.95;12.57;;;5.60;99.90;;;;;;6251210;22;20031;-78
2022/01/14 04:00:41;;;;;;;36.80;14.48;;;5.60;99.90;;;;;;6251252;22;20493;-78
2022/01/14 04:03:07;;;;;;;29.48;12.68;;;5.60;99.90;;;;;;6251185;22;20401;-78
2022/01/14 04:05:34;;;;;;;33.78;13.38;;;5.50;99.90;;;;;;6278197;22;20415;-78
2022/01/14 04:08:00;;;;;;;30.27;15.15;;;5.50;99.90;;;;;;6250949;22;20370;-78
2022/01/14 04:10:26;;;;;;;31.67;13.18;;;5.50;99.90;;;;;;6251186;22;20458;-78
2022/01/14 04:18:08;;;;;;;28.58;13.50;;;5.40;99.90;;;;;;6250993;22;20054;-78
2022/01/14 04:20:37;;;;;;;29.45;13.23;;;5.40;99.90;;;;;;6277823;22;20474;-78
2022/01/14 04:23:07;;;;;;;33.00;13.15;;;5.30;99.90;;;;;;6250746;22;20058;-78
2022/01/14 04:25:36;;;;;;;38.30;14.95;;;5.30;99.90;;;;;;6278179;22;20050;-78
2022/01/14 04:28:03;;;;;;;29.80;14.15;;;5.30;99.90;;;;;;6277997;22;20019;-78
2022/01/14 04:30:29;;;;;;;31.70;15.20;;;5.30;99.90;;;;;;6250826;22;20078;-78
2022/01/14 04:32:55;;;;;;;25.63;13.27;;;5.30;99.90;;;;;;6278227;22;20047;-78
2022/01/14 04:35:21;;;;;;;40.90;16.08;;;5.30;99.90;;;;;;6251259;22;20023;-78
2022/01/14 04:37:46;;;;;;;33.33;14.63;;;5.20;99.90;;;;;;6250686;22;20012;-78
2022/01/14 04:40:13;;;;;;;29.15;12.88;;;5.30;99.90;;;;;;6250935;22;20087;-78
2022/01/14 04:42:43;;;;;;;28.85;12.00;;;5.30;99.90;;;;;;6250745;22;20027;-77
2022/01/14 04:45:12;;;;;;;28.02;13.48;;;5.30;99.90;;;;;;6278221;22;20047;-77
2022/01/14 04:47:47;;;;;;;30.23;12.13;;;5.30;99.90;;;;;;6251563;22;20026;-77
2022/01/14 04:50:15;;;;;;;28.80;13.38;;;5.30;99.90;;;;;;6250751;22;20101;-78
2022/01/14 04:52:43;;;;;;;34.78;14.63;;;5.40;99.90;;;;;;6250624;22;20020;-78
2022/01/14 04:55:10;;;;;;;31.25;14.02;;;5.30;99.90;;;;;;6250533;22;20012;-78
2022/01/14 04:57:36;;;;;;;26.08;13.32;;;5.30;99.90;;;;;;6250415;22;20081;-78
2022/01/14 05:00:09;;;;;;;32.67;13.00;;;5.30;99.90;;;;;;6250550;22;20443;-78
2022/01/14 05:02:36;;;;;;;22.33;12.88;;;5.30;99.90;;;;;;6250601;22;20012;-78
2022/01/14 05:05:03;;;;;;;31.50;13.50;;;5.30;99.90;;;;;;6277884;22;20435;-78
2022/01/14 05:07:29;;;;;;;35.13;14.65;;;5.30;99.90;;;;;;6250474;22;20026;-78
2022/01/14 05:10:15;;;;;;;33.95;15.32;;;5.30;99.90;;;;;;6250568;22;20024;-78
2022/01/14 05:12:40;;;;;;;28.73;14.70;;;5.30;99.90;;;;;;6250460;22;20043;-78
2022/01/14 05:15:07;;;;;;;30.30;13.98;;;5.30;99.90;;;;;;6250491;22;20350;-78
2022/01/14 05:17:33;;;;;;;26.65;12.52;;;5.30;99.90;;;;;;6277743;22;20016;-78
2022/01/14 05:19:59;;;;;;;27.83;13.10;;;5.40;99.90;;;;;;6250265;22;20019;-78
2022/01/14 05:22:26;;;;;;;28.70;12.00;;;5.40;99.90;;;;;;6250290;22;20047;-78
2022/01/14 05:24:53;;;;;;;22.20;11.63;;;5.40;99.90;;;;;;6250079;22;20015;-78
2022/01/14 05:27:19;;;;;;;32.20;12.45;;;5.40;99.90;;;;;;6250300;22;20346;-78
2022/01/14 05:29:45;;;;;;;28.80;12.43;;;5.50;99.90;;;;;;6250384;22;20478;-78
2022/01/14 05:32:13;;;;;;;33.28;13.60;;;5.50;99.90;;;;;;6250323;22;20027;-78
2022/01/14 05:34:41;;;;;;;34.42;11.30;;;5.50;99.90;;;;;;6250167;22;20050;-78
2022/01/14 05:37:08;;;;;;;23.13;10.55;;;5.50;99.90;;;;;;6250157;22;20019;-78
2022/01/14 05:39:34;;;;;;;22.85;10.65;;;5.60;99.90;;;;;;6250258;22;20020;-78
2022/01/14 05:42:00;;;;;;;30.17;10.25;;;5.60;99.90;;;;;;6250196;22;20346;-78
2022/01/14 05:44:27;;;;;;;23.00;9.68;;;5.70;99.90;;;;;;6250222;22;20034;-78
2022/01/14 05:46:54;;;;;;;33.97;10.18;;;5.80;99.90;;;;;;6250124;22;20447;-78
2022/01/14 05:49:20;;;;;;;22.70;8.85;;;5.80;99.90;;;;;;6277575;22;20053;-78
2022/01/14 05:51:46;;;;;;;22.88;8.65;;;5.90;99.90;;;;;;6250036;22;20050;-78
2022/01/14 05:54:12;;;;;;;24.05;9.57;;;5.90;99.90;;;;;;6250074;22;20099;-78
2022/01/14 05:56:38;;;;;;;31.00;10.63;;;5.80;99.90;;;;;;6277406;22;20057;-78
2022/01/14 05:59:04;;;;;;;29.25;8.80;;;5.80;99.90;;;;;;6250079;22;20088;-78
2022/01/14 06:01:33;;;;;;;25.33;8.25;;;5.90;99.90;;;;;;6250096;22;20113;-78
2022/01/14 06:04:00;;;;;;;30.90;11.07;;;5.90;99.90;;;;;;6249979;22;20440;-78
2022/01/14 06:06:26;;;;;;;23.20;7.95;;;5.80;99.90;;;;;;6249992;22;20406;-78
2022/01/14 06:08:51;;;;;;;19.42;8.38;;;5.90;99.90;;;;;;6250029;22;20055;-78
2022/01/14 06:11:17;;;;;;;21.10;8.15;;;5.90;99.90;;;;;;6277111;22;20026;-78
2022/01/14 06:13:43;;;;;;;24.80;7.20;;;5.80;99.90;;;;;;6249975;22;20024;-78
2022/01/14 06:16:09;;;;;;;28.33;6.90;;;5.80;99.90;;;;;;6249831;22;20023;-78
2022/01/14 06:18:35;;;;;;;22.83;6.88;;;5.80;99.90;;;;;;6249931;22;20012;-78
2022/01/14 06:21:01;;;;;;;22.35;6.65;;;5.90;99.90;;;;;;6249685;22;20019;-78
2022/01/14 06:23:26;;;;;;;19.23;7.18;;;5.90;99.90;;;;;;6249840;22;20073;-78
2022/01/14 06:25:52;;;;;;;16.38;4.80;;;6.00;99.90;;;;;;6249953;22;20482;-78
2022/01/14 06:28:18;;;;;;;11.45;4.60;;;6.00;99.90;;;;;;6249820;22;20077;-78
2022/01/14 06:30:44;;;;;;;19.42;5.00;;;6.10;99.90;;;;;;6249783;22;20012;-77
2022/01/14 06:33:09;;;;;;;14.00;5.40;;;6.20;99.90;;;;;;6249866;22;20100;-77
2022/01/14 06:35:35;;;;;;;20.70;5.65;;;6.20;99.90;;;;;;6249930;22;20022;-77
2022/01/14 06:38:01;;;;;;;19.27;6.25;;;6.20;99.90;;;;;;6276880;22;20019;-77
2022/01/14 06:40:28;;;;;;;33.60;7.57;;;6.20;99.90;;;;;;6276931;22;20058;-78
2022/01/14 06:42:54;;;;;;;17.17;6.15;;;6.20;99.90;;;;;;6249871;22;20011;-78
2022/01/14 06:45:20;;;;;;;15.90;5.20;;;6.30;99.90;;;;;;6249743;22;20016;-78
2022/01/14 06:47:46;;;;;;;16.50;5.32;;;6.30;99.90;;;;;;6250944;22;20043;-78
2022/01/14 06:50:11;;;;;;;17.70;5.57;;;6.30;99.90;;;;;;6279296;22;20011;-78
2022/01/14 06:52:37;;;;;;;22.27;5.38;;;6.40;99.90;;;;;;6279233;22;20521;-78
2022/01/14 06:55:04;;;;;;;12.43;5.05;;;6.40;99.90;;;;;;6251834;22;20095;-78
2022/01/14 06:57:30;;;;;;;20.33;5.93;;;6.40;99.90;;;;;;6251717;22;20098;-78
2022/01/14 06:59:55;;;;;;;15.43;5.20;;;6.40;99.90;;;;;;6251812;22;20051;-78
2022/01/14 07:02:21;;;;;;;20.98;4.25;;;6.40;99.90;;;;;;6251775;22;20352;-78
2022/01/14 07:04:47;;;;;;;21.40;5.15;;;6.40;99.90;;;;;;6251764;22;20078;-78
2022/01/14 07:07:12;;;;;;;26.13;5.65;;;6.40;99.90;;;;;;6251717;22;20016;-78
2022/01/14 07:09:55;;;;;;;16.25;4.63;;;6.40;99.90;;;;;;6251658;22;20390;-78
2022/01/14 07:12:23;;;;;;;13.52;4.65;;;6.40;99.90;;;;;;6278817;22;20437;-78
2022/01/14 07:14:48;;;;;;;18.27;5.93;;;6.30;99.90;;;;;;6251620;22;20439;-78
2022/01/14 07:17:14;;;;;;;21.08;4.80;;;6.30;99.90;;;;;;6278648;22;20023;-78
2022/01/14 07:19:40;;;;;;;17.90;4.97;;;6.20;99.90;;;;;;6251402;22;20016;-78
2022/01/14 07:22:06;;;;;;;13.60;4.90;;;6.30;99.90;;;;;;6251601;22;20023;-78
2022/01/14 07:24:32;;;;;;;17.30;4.65;;;6.20;99.90;;;;;;6251637;22;20027;-78
2022/01/14 07:26:58;;;;;;;16.20;4.60;;;6.30;99.90;;;;;;6251510;22;20017;-78
2022/01/14 07:29:24;;;;;;;18.58;4.55;;;6.20;99.90;;;;;;6278934;22;20087;-78
2022/01/14 07:31:51;;;;;;;15.98;4.10;;;6.30;99.90;;;;;;6278630;22;20093;-78
2022/01/14 07:34:17;;;;;;;23.90;6.10;;;6.20;99.90;;;;;;6251334;22;20023;-78
2022/01/14 07:36:43;;;;;;;12.57;4.28;;;6.20;99.90;;;;;;6251347;22;20055;-78
2022/01/14 07:39:08;;;;;;;17.13;5.00;;;6.10;99.90;;;;;;6251351;22;20043;-78
2022/01/14 07:41:34;;;;;;;18.15;4.68;;;6.20;99.90;;;;;;6278554;22;20016;-78
2022/01/14 07:44:01;;;;;;;14.35;4.32;;;6.10;99.90;;;;;;6251132;22;20343;-77
2022/01/14 07:46:27;;;;;;;13.68;4.25;;;6.10;99.90;;;;;;6250972;22;20016;-78
2022/01/14 07:48:52;;;;;;;13.90;4.05;;;6.10;99.90;;;;;;6250964;22;20019;-77
2022/01/14 07:51:18;;;;;;;22.25;6.10;;;6.10;99.90;;;;;;6250353;22;20321;-78
2022/01/14 07:53:43;;;;;;;16.00;4.57;;;6.10;99.90;;;;;;6277766;22;20023;-77
2022/01/14 07:56:12;;;;;;;20.27;4.72;;;6.00;99.90;;;;;;6276787;22;20090;-77
2022/01/14 07:58:39;;;;;;;14.63;4.85;;;6.00;99.90;;;;;;6250814;22;20355;-78
2022/01/14 08:01:04;;;;;;;13.68;4.75;;;6.00;99.90;;;;;;6278500;22;20102;-78
2022/01/14 08:03:30;;;;;;;18.65;5.05;;;6.00;99.90;;;;;;6250998;22;20374;-77
2022/01/14 08:05:58;;;;;;;14.48;5.30;;;6.10;99.90;;;;;;6250892;22;20102;-78
2022/01/14 08:08:24;;;;;;;13.48;4.38;;;6.00;99.90;;;;;;6278505;22;20019;-78
2022/01/14 08:10:50;;;;;;;26.10;5.30;;;6.00;99.90;;;;;;6250848;22;20073;-77
2022/01/14 08:13:16;;;;;;;16.55;4.85;;;6.00;99.90;;;;;;6250967;22;20348;-78
2022/01/14 08:15:41;;;;;;;16.52;4.43;;;6.00;99.90;;;;;;6250853;22;20071;-77
2022/01/14 08:18:07;;;;;;;18.15;4.28;;;6.00;99.90;;;;;;6278274;22;20027;-78
2022/01/14 08:20:33;;;;;;;22.45;4.75;;;6.00;99.90;;;;;;6277749;22;20012;-77
2022/01/14 08:22:59;;;;;;;17.98;4.00;;;6.00;99.90;;;;;;6250699;22;20022;-78
2022/01/14 08:25:26;;;;;;;21.40;5.05;;;6.00;99.90;;;;;;6250761;22;20047;-77
2022/01/14 08:27:51;;;;;;;15.70;3.92;;;6.00;99.90;;;;;;6249496;22;20103;-77
2022/01/14 08:30:17;;;;;;;19.13;4.05;;;6.00;99.90;;;;;;6250688;22;20043;-76
2022/01/14 08:32:43;;;;;;;17.30;4.40;;;6.00;99.90;;;;;;6250373;22;20382;-77
2022/01/14 08:35:09;;;;;;;18.23;4.28;;;6.10;99.90;;;;;;6250585;22;20443;-77
2022/01/14 08:37:36;;;;;;;21.42;4.22;;;6.10;99.90;;;;;;6250243;22;20019;-77
2022/01/14 08:40:01;;;;;;;17.17;5.03;;;6.10;99.90;;;;;;6250436;22;20015;-77
2022/01/14 08:42:27;;;;;;;18.73;5.22;;;6.10;99.90;;;;;;6250286;22;20022;-76
2022/01/14 08:44:53;;;;;;;15.48;4.95;;;6.10;99.90;;;;;;6250417;22;20019;-77
2022/01/14 08:47:18;;;;;;;11.30;3.55;;;6.10;99.90;;;;;;6250433;22;20432;-77
2022/01/14 08:49:44;;;;;;;12.07;3.78;;;6.10;99.90;;;;;;6277325;22;20023;-77
2022/01/14 08:52:12;;;;;;;18.30;3.50;;;6.20;99.90;;;;;;6250343;22;20027;-77
2022/01/14 08:54:39;;;;;;;13.77;3.30;;;6.20;99.90;;;;;;6250310;22;20332;-76
2022/01/14 08:57:05;;;;;;;18.90;3.40;;;6.20;99.90;;;;;;6250155;22;20073;-77
2022/01/14 08:59:31;;;;;;;12.98;3.30;;;6.20;99.90;;;;;;6277629;22;20008;-77
2022/01/14 09:01:58;;;;;;;12.00;3.97;;;6.20;99.90;;;;;;6250282;22;20069;-77
2022/01/14 09:04:24;;;;;;;17.58;3.38;;;6.30;99.90;;;;;;6250243;22;20346;-77
2022/01/14 09:06:50;;;;;;;17.52;4.28;;;6.30;99.90;;;;;;6250158;22;20020;-77
2022/01/14 09:09:16;;;;;;;22.88;3.97;;;6.30;99.90;;;;;;6249989;22;20025;-77
2022/01/14 09:11:42;;;;;;;20.95;3.28;;;6.30;99.90;;;;;;6277518;22;20015;-76
2022/01/14 09:14:07;;;;;;;12.18;4.50;;;6.40;99.90;;;;;;6250185;22;20331;-77
2022/01/14 09:16:33;;;;;;;11.68;3.15;;;6.40;99.90;;;;;;6250183;22;20019;-77
2022/01/14 09:18:59;;;;;;;12.23;3.10;;;6.40;99.90;;;;;;6250012;22;20043;-77
2022/01/14 09:21:25;;;;;;;17.98;3.85;;;6.40;99.90;;;;;;6276834;22;20012;-77
2022/01/14 09:23:54;;;;;;;13.40;3.63;;;6.40;99.90;;;;;;6276295;22;20091;-77
2022/01/14 09:26:21;;;;;;;20.65;4.65;;;6.30;99.90;;;;;;6277401;22;20008;-77
2022/01/14 09:28:47;;;;;;;17.23;4.22;;;6.40;99.90;;;;;;6249903;22;20028;-77
2022/01/14 09:31:13;;;;;;;12.93;3.15;;;6.40;99.90;;;;;;6249611;22;20015;-77
2022/01/14 09:33:41;;;;;;;11.98;3.20;;;6.30;99.90;;;;;;6249893;22;20019;-77
2022/01/14 09:36:07;;;;;;;14.07;3.47;;;6.40;99.90;;;;;;6249788;22;20324;-77
2022/01/14 09:38:33;;;;;;;12.10;3.00;;;6.40;99.90;;;;;;6249645;22;20058;-78
2022/01/14 09:40:59;;;;;;;23.73;5.15;;;6.40;99.90;;;;;;6249804;22;20016;-78
2022/01/14 09:43:25;;;;;;;13.68;3.20;;;6.40;99.90;;;;;;6248268;22;20023;-78
2022/01/14 09:45:52;;;;;;;12.50;3.47;;;6.40;99.90;;;;;;6276207;22;20339;-77
2022/01/14 09:48:18;;;;;;;11.57;3.40;;;6.50;99.90;;;;;;6249597;22;20016;-77
2022/01/14 09:50:44;;;;;;;16.52;3.63;;;6.50;99.90;;;;;;6249703;22;20405;-78
2022/01/14 09:53:15;;;;;;;21.60;3.53;;;6.60;99.90;;;;;;6249110;22;20020;-77
2022/01/14 09:55:42;;;;;;;21.55;3.55;;;6.60;99.90;;;;;;6249668;22;20449;-78
2022/01/14 09:58:09;;;;;;;15.40;3.45;;;6.60;99.90;;;;;;6249578;22;20016;-77
2022/01/14 10:00:37;;;;;;;17.13;3.95;;;6.60;99.90;;;;;;6248150;22;20015;-78
2022/01/14 10:03:23;;;;;;;18.83;3.95;;;6.70;99.90;;;;;;6277106;22;20105;-77
2022/01/14 10:05:52;;;;;;;11.38;3.58;;;6.60;99.90;;;;;;6277178;22;20034;-78
2022/01/14 10:08:26;;;;;;;12.95;3.90;;;6.60;99.90;;;;;;6276739;22;20024;-78
2022/01/14 10:11:00;;;;;;;14.40;4.47;;;6.60;99.90;;;;;;6277073;22;20011;-78
2022/01/14 10:13:34;;;;;;;15.55;3.33;;;6.70;99.90;;;;;;6249623;22;20422;-78
2022/01/14 10:16:06;;;;;;;20.20;5.20;;;6.70;99.90;;;;;;6249233;22;20023;-78
2022/01/14 10:18:33;;;;;;;16.48;3.88;;;6.70;99.90;;;;;;6249466;22;20102;-78
2022/01/14 10:21:02;;;;;;;15.63;4.10;;;6.70;99.90;;;;;;6248747;22;20020;-78
2022/01/14 10:24:00;;;;;;;16.90;4.18;;;6.70;99.90;;;;;;6249482;22;20035;-78
2022/01/14 10:26:27;;;;;;;15.13;4.43;;;6.70;99.90;;;;;;6183961;22;20436;-78
2022/01/14 10:29:07;;;;;;;18.83;3.88;;;6.70;99.90;;;;;;6249489;22;20332;-78
2022/01/14 10:31:35;;;;;;;18.60;4.03;;;6.70;99.90;;;;;;6249524;22;20061;-78
2022/01/14 10:34:11;;;;;;;15.80;3.97;;;6.70;99.90;;;;;;6249980;22;20439;-78
2022/01/14 10:36:37;;;;;;;16.77;4.38;;;6.70;99.90;;;;;;6249288;22;20026;-78
2022/01/14 10:39:24;;;;;;;17.15;5.50;;;6.70;99.90;;;;;;6249388;22;20019;-76
2022/01/14 10:41:52;;;;;;;16.50;5.07;;;6.70;99.90;;;;;;6275644;22;20061;-77
2022/01/14 10:44:27;;;;;;;16.27;3.42;;;6.70;99.90;;;;;;6248897;22;20015;-78
2022/01/14 10:47:17;;;;;;;19.27;4.60;;;6.70;99.90;;;;;;6249371;22;20404;-77
2022/01/14 10:49:46;;;;;;;13.55;3.67;;;6.70;99.90;;;;;;6249395;22;20099;-77
2022/01/14 10:52:25;;;;;;;14.80;4.10;;;6.80;99.90;;;;;;6248240;22;20020;-77
2022/01/14 10:54:54;;;;;;;15.73;4.22;;;6.80;99.90;;;;;;6249387;22;20015;-78
2022/01/14 10:57:26;;;;;;;19.48;4.07;;;6.80;99.90;;;;;;6276336;22;20027;-77
2022/01/14 10:59:56;;;;;;;18.13;4.80;;;6.80;99.90;;;;;;6249491;22;20011;-77
2022/01/14 11:02:36;;;;;;;13.52;3.90;;;6.80;99.90;;;;;;6249365;22;20443;-77
2022/01/14 11:05:11;;;;;;;20.48;4.68;;;6.80;99.90;;;;;;6249370;22;20019;-78
2022/01/14 11:07:37;;;;;;;17.77;3.58;;;6.90;99.90;;;;;;6249407;22;20038;-77
2022/01/14 11:10:15;;;;;;;13.63;3.53;;;6.90;99.90;;;;;;6249354;22;20020;-82
2022/01/14 11:12:42;;;;;;;15.77;3.25;;;6.90;99.90;;;;;;6249268;22;20051;-82
2022/01/14 11:15:09;;;;;;;19.35;4.40;;;6.90;99.90;;;;;;6249335;22;20027;-83
2022/01/14 11:17:37;;;;;;;16.08;4.40;;;7.00;99.90;;;;;;6249211;22;20023;-83
2022/01/14 11:20:04;;;;;;;20.52;3.78;;;6.90;99.90;;;;;;6244018;23;20058;-82
2022/01/14 11:25:14;;;;;;;22.65;4.38;;;7.00;99.90;;;;;;6249227;22;20046;-81
2022/01/14 11:27:46;;;;;;;26.35;4.40;;;7.00;99.90;;;;;;6249387;22;20020;-83
2022/01/14 11:30:13;;;;;;;15.25;4.70;;;7.10;99.90;;;;;;6249255;22;20012;-83
2022/01/14 11:32:56;;;;;;;14.48;3.47;;;7.10;99.90;;;;;;6249380;22;20016;-83
2022/01/14 11:35:25;;;;;;;17.13;4.18;;;7.10;99.90;;;;;;6251043;22;20062;-83
2022/01/14 11:37:51;;;;;;;24.70;4.30;;;7.20;99.90;;;;;;6278008;22;20020;-82
2022/01/14 11:40:18;;;;;;;19.00;4.07;;;7.20;99.90;;;;;;6250971;22;20499;-84
2022/01/14 11:42:46;;;;;;;18.45;4.57;;;7.20;99.90;;;;;;6251644;22;20023;-82
2022/01/14 11:45:15;;;;;;;16.38;4.10;;;7.30;99.90;;;;;;6278369;22;20016;-84
2022/01/14 11:47:42;;;;;;;17.10;4.22;;;7.30;99.90;;;;;;6277964;22;20012;-84
2022/01/14 11:50:23;;;;;;;16.90;3.67;;;7.30;99.90;;;;;;6250960;22;20016;-85
2022/01/14 11:52:50;;;;;;;14.90;3.25;;;7.40;99.90;;;;;;6250924;22;20024;-83
2022/01/14 11:55:22;;;;;;;18.83;4.05;;;7.40;99.90;;;;;;6250940;22;20105;-83
2022/01/14 11:57:49;;;;;;;22.08;5.00;;;7.40;99.90;;;;;;6250646;22;20024;-82
2022/01/14 12:00:37;;;;;;;16.33;4.25;;;7.40;99.90;;;;;;6250679;22;20023;-85
2022/01/14 12:03:13;;;;;;;20.10;3.55;;;7.40;99.90;;;;;;6249471;22;20043;-84
2022/01/14 12:06:02;;;;;;;18.80;3.83;;;7.40;99.90;;;;;;6250692;22;20020;-84
2022/01/14 12:09:01;;;;;;;15.80;4.53;;;7.40;99.90;;;;;;6250858;22;20094;-83
2022/01/14 12:11:30;;;;;;;17.45;4.65;;;7.40;99.90;;;;;;6250641;22;20011;-83
2022/01/14 12:14:02;;;;;;;25.13;4.53;;;7.50;99.90;;;;;;6250961;22;20092;-81
2022/01/14 12:18:58;;;;;;;22.90;5.32;;;7.50;99.90;;;;;;6250434;22;20027;-83
2022/01/14 12:21:48;;;;;;;20.33;4.20;;;7.50;99.90;;;;;;6250731;22;20057;-82
2022/01/14 12:24:27;;;;;;;16.38;3.92;;;7.50;99.90;;;;;;6250565;22;20016;-83
2022/01/14 12:26:53;;;;;;;26.67;4.85;;;7.50;99.90;;;;;;6250604;22;20020;-82
2022/01/14 12:29:46;;;;;;;21.00;3.85;;;7.50;99.90;;;;;;6250372;22;20016;-83
2022/01/14 12:32:12;;;;;;;;;;;7.50;99.90;;;;;;6250965;22;20019;-79
2022/01/14 12:35:00;;;;;;;23.58;4.63;;;7.50;99.90;;;;;;6250551;22;19911;-82
2022/01/14 12:37:33;;;;;;;16.92;4.53;;;7.50;99.90;;;;;;6250411;22;20077;-82
2022/01/14 12:40:08;;;;;;;16.90;4.05;;;7.50;99.90;;;;;;6250442;22;20077;-83
2022/01/14 12:42:34;;;;;;;15.90;4.45;;;7.50;99.90;;;;;;6250490;22;20440;-83
2022/01/14 12:45:00;;;;;;;21.42;4.45;;;7.50;99.90;;;;;;6249987;22;20019;-82
2022/01/14 12:47:34;;;;;;;29.33;5.32;;;7.50;99.90;;;;;;6250482;22;20020;-84
2022/01/14 12:50:06;;;;;;;16.88;4.45;;;7.50;99.90;;;;;;6250102;22;20015;-84
2022/01/14 12:52:38;;;;;;;19.52;3.90;;;7.50;99.90;;;;;;6250242;22;20451;-83
2022/01/14 12:55:11;;;;;;;17.48;3.65;;;7.40;99.90;;;;;;6250335;22;20019;-83
2022/01/14 12:57:36;;;;;;;20.60;4.45;;;7.40;99.90;;;;;;6250567;22;20457;-84
2022/01/14 13:00:05;;;;;;;22.88;4.60;;;7.40;99.90;;;;;;6250286;22;20016;-77
2022/01/14 13:02:31;;;;;;;19.83;3.85;;;7.40;99.90;;;;;;6277089;22;20019;-77
2022/01/14 13:05:15;;;;;;;18.02;4.20;;;7.50;99.90;;;;;;6250167;22;20023;-81
2022/01/14 13:07:42;;;;;;;15.32;4.03;;;7.50;99.90;;;;;;6250080;22;20016;-77
2022/01/14 13:10:11;;;;;;;18.20;4.15;;;7.40;99.90;;;;;;6250204;22;20031;-81
2022/01/14 13:12:43;;;;;;;20.67;4.55;;;7.40;99.90;;;;;;6248643;22;20042;-77
2022/01/14 13:15:13;;;;;;;22.27;6.15;;;7.50;99.90;;;;;;6277310;22;20055;-77
2022/01/14 13:17:49;;;;;;;20.98;4.63;;;7.50;99.90;;;;;;6249596;22;20471;-78
2022/01/14 13:20:17;;;;;;;21.73;5.05;;;7.50;99.90;;;;;;6276721;22;20069;-78